AFR22J LFPG-KLAX
Flight info
| Callsign | AFR22J |
|---|---|
| Flight time | N/A |
| Altitude | 34000 |
| Route | ATREX DCT VESAN DCT RATUK DCT SOVAT L613 SANDY UN601 LESTA UP6 RODOL UM65 TENSO L603 BELOX DCT NELBO DCT GOTNA DCT APSOV DCT SUNOT/M083F340 DCT 58N020W 60N030W 61N040W 62N050W/M083F360 DCT KETLA DCT IKMAN/N0485F360 DCT RONPU DCT YYQ DCT 56N100W/N0482F380 DCT YPA Q838 TAGOT DCT 50N109W DCT WLLES DCT KU15O DCT KU03M DCT VELUY DCT KU66I DCT PUSHH/N0466F390 DCT REBRG IRNMN2 |
| Aircraft | B77W/H-SDE1E2E3FGHIJ2J3J4J5M1RWXY/LB1D1 |
Departure
| Time | 2026-05-08 09:08 |
|---|---|
| Airport | Charles de Gaulle International Airport (LFPG) |
Arrival
| Time | N/A |
|---|---|
| Airport | Los Angeles International Airport (KLAX) |
| Time | Latitude | Longitude | Altitude | Speed | Heading |
|---|---|---|---|---|---|
| 2026-05-08 08:20 | 49.00760 | 2.58559 | 363 ft | 0 kts | 267° |
| 2026-05-08 08:20 | 49.00760 | 2.58557 | 363 ft | 0 kts | 267° |
| 2026-05-08 08:46 | 49.00761 | 2.58577 | 364 ft | 3 kts | 267° |
| 2026-05-08 08:46 | 49.00762 | 2.58608 | 358 ft | 3 kts | 266° |
| 2026-05-08 08:46 | 49.00763 | 2.58634 | 358 ft | 2 kts | 266° |
| 2026-05-08 08:47 | 49.00764 | 2.58660 | 363 ft | 3 kts | 282° |
| 2026-05-08 08:47 | 49.00759 | 2.58681 | 361 ft | 3 kts | 311° |
| 2026-05-08 08:47 | 49.00751 | 2.58693 | 367 ft | 3 kts | 345° |
| 2026-05-08 08:47 | 49.00733 | 2.58697 | 365 ft | 3 kts | 0° |
| 2026-05-08 08:48 | 49.00715 | 2.58697 | 366 ft | 1 kts | 356° |
| 2026-05-08 08:48 | 49.00712 | 2.58697 | 365 ft | 6 kts | 355° |
| 2026-05-08 08:52 | 49.00726 | 2.58695 | 364 ft | 9 kts | 355° |
| 2026-05-08 08:52 | 49.00816 | 2.58667 | 361 ft | 11 kts | 341° |
| 2026-05-08 08:52 | 49.00890 | 2.58620 | 364 ft | 11 kts | 332° |
| 2026-05-08 08:52 | 49.00926 | 2.58517 | 367 ft | 12 kts | 276° |
| 2026-05-08 08:53 | 49.00922 | 2.58394 | 366 ft | 12 kts | 265° |
| 2026-05-08 08:53 | 49.00938 | 2.58277 | 368 ft | 12 kts | 310° |
| 2026-05-08 08:53 | 49.01012 | 2.58229 | 366 ft | 12 kts | 352° |
| 2026-05-08 08:53 | 49.01095 | 2.58215 | 364 ft | 12 kts | 356° |
| 2026-05-08 08:54 | 49.01178 | 2.58203 | 364 ft | 12 kts | 356° |
| 2026-05-08 08:54 | 49.01262 | 2.58191 | 364 ft | 12 kts | 355° |
| 2026-05-08 08:54 | 49.01347 | 2.58186 | 365 ft | 12 kts | 357° |
| 2026-05-08 08:54 | 49.01431 | 2.58173 | 361 ft | 12 kts | 352° |
| 2026-05-08 08:55 | 49.01515 | 2.58161 | 364 ft | 12 kts | 355° |
| 2026-05-08 08:55 | 49.01598 | 2.58148 | 367 ft | 12 kts | 352° |
| 2026-05-08 08:55 | 49.01683 | 2.58143 | 360 ft | 12 kts | 359° |
| 2026-05-08 08:55 | 49.01767 | 2.58137 | 366 ft | 12 kts | 354° |
| 2026-05-08 08:56 | 49.01850 | 2.58119 | 365 ft | 12 kts | 348° |
| 2026-05-08 08:56 | 49.01931 | 2.58081 | 365 ft | 12 kts | 339° |
| 2026-05-08 08:56 | 49.02001 | 2.58011 | 368 ft | 12 kts | 318° |
| 2026-05-08 08:56 | 49.02054 | 2.57910 | 364 ft | 12 kts | 301° |
| 2026-05-08 08:57 | 49.02082 | 2.57792 | 364 ft | 12 kts | 282° |
| 2026-05-08 08:57 | 49.02087 | 2.57662 | 360 ft | 12 kts | 268° |
| 2026-05-08 08:57 | 49.02082 | 2.57534 | 365 ft | 12 kts | 265° |
| 2026-05-08 08:57 | 49.02076 | 2.57406 | 366 ft | 12 kts | 266° |
| 2026-05-08 08:58 | 49.02070 | 2.57280 | 360 ft | 12 kts | 265° |
| 2026-05-08 08:58 | 49.02061 | 2.57152 | 363 ft | 12 kts | 265° |
| 2026-05-08 08:58 | 49.02054 | 2.57024 | 360 ft | 12 kts | 267° |
| 2026-05-08 08:58 | 49.02049 | 2.56895 | 360 ft | 13 kts | 265° |
| 2026-05-08 08:59 | 49.02042 | 2.56762 | 365 ft | 13 kts | 265° |
| 2026-05-08 08:59 | 49.02033 | 2.56628 | 366 ft | 13 kts | 265° |
| 2026-05-08 08:59 | 49.02026 | 2.56494 | 364 ft | 13 kts | 266° |
| 2026-05-08 08:59 | 49.02039 | 2.56363 | 368 ft | 13 kts | 296° |
| 2026-05-08 09:00 | 49.02085 | 2.56249 | 368 ft | 13 kts | 289° |
| 2026-05-08 09:00 | 49.02097 | 2.56115 | 363 ft | 13 kts | 268° |
| 2026-05-08 09:00 | 49.02090 | 2.55978 | 368 ft | 13 kts | 264° |
| 2026-05-08 09:00 | 49.02081 | 2.55841 | 365 ft | 13 kts | 266° |
| 2026-05-08 09:01 | 49.02075 | 2.55703 | 367 ft | 13 kts | 266° |
| 2026-05-08 09:01 | 49.02067 | 2.55565 | 365 ft | 13 kts | 265° |
| 2026-05-08 09:01 | 49.02059 | 2.55428 | 360 ft | 13 kts | 266° |
| 2026-05-08 09:01 | 49.02052 | 2.55271 | 360 ft | 20 kts | 266° |
| 2026-05-08 09:02 | 49.02042 | 2.55093 | 365 ft | 15 kts | 265° |
| 2026-05-08 09:02 | 49.02035 | 2.54939 | 366 ft | 15 kts | 269° |
| 2026-05-08 09:02 | 49.02027 | 2.54782 | 365 ft | 15 kts | 264° |
| 2026-05-08 09:02 | 49.02016 | 2.54626 | 367 ft | 15 kts | 262° |
| 2026-05-08 09:03 | 49.02006 | 2.54468 | 365 ft | 15 kts | 269° |
| 2026-05-08 09:03 | 49.01998 | 2.54309 | 362 ft | 15 kts | 263° |
| 2026-05-08 09:03 | 49.01960 | 2.54164 | 364 ft | 15 kts | 226° |
| 2026-05-08 09:03 | 49.01892 | 2.54043 | 367 ft | 15 kts | 247° |
| 2026-05-08 09:04 | 49.01887 | 2.53884 | 365 ft | 15 kts | 266° |
| 2026-05-08 09:04 | 49.01880 | 2.53724 | 359 ft | 15 kts | 266° |
| 2026-05-08 09:04 | 49.01875 | 2.53618 | 365 ft | 15 kts | 266° |
| 2026-05-08 09:04 | 49.01866 | 2.53459 | 364 ft | 15 kts | 264° |
| 2026-05-08 09:05 | 49.01856 | 2.53299 | 361 ft | 15 kts | 265° |
| 2026-05-08 09:05 | 49.01847 | 2.53139 | 361 ft | 15 kts | 264° |
| 2026-05-08 09:05 | 49.01838 | 2.52977 | 359 ft | 15 kts | 266° |
| 2026-05-08 09:05 | 49.01829 | 2.52817 | 366 ft | 15 kts | 264° |
| 2026-05-08 09:06 | 49.01818 | 2.52604 | 365 ft | 15 kts | 264° |
| 2026-05-08 09:06 | 49.01812 | 2.52495 | 364 ft | 15 kts | 266° |
| 2026-05-08 09:06 | 49.01829 | 2.52386 | 368 ft | 8 kts | 330° |
| 2026-05-08 09:06 | 49.01886 | 2.52359 | 365 ft | 9 kts | 352° |
| 2026-05-08 09:07 | 49.01949 | 2.52348 | 361 ft | 9 kts | 353° |
| 2026-05-08 09:07 | 49.02015 | 2.52339 | 366 ft | 10 kts | 355° |
| 2026-05-08 09:07 | 49.02081 | 2.52337 | 364 ft | 10 kts | 16° |
| 2026-05-08 09:07 | 49.02119 | 2.52426 | 363 ft | 13 kts | 76° |
| 2026-05-08 09:08 | 49.02151 | 2.52872 | 366 ft | 77 kts | 85° |
| 2026-05-08 09:08 | 49.02209 | 2.54039 | 359 ft | 142 kts | 86° |
| 2026-05-08 09:08 | 49.02308 | 2.55801 | 374 ft | 188 kts | 85° |
| 2026-05-08 09:08 | 49.02390 | 2.57757 | 1013 ft | 184 kts | 87° |
| 2026-05-08 09:09 | 49.02319 | 2.59742 | 1613 ft | 189 kts | 95° |
| 2026-05-08 09:09 | 49.02246 | 2.61740 | 2180 ft | 193 kts | 86° |
| 2026-05-08 09:09 | 49.02461 | 2.63885 | 2388 ft | 217 kts | 79° |
| 2026-05-08 09:09 | 49.02796 | 2.66232 | 2843 ft | 232 kts | 73° |
| 2026-05-08 09:10 | 49.03505 | 2.68494 | 3360 ft | 244 kts | 55° |
| 2026-05-08 09:10 | 49.04711 | 2.70289 | 3997 ft | 249 kts | 31° |
| 2026-05-08 09:10 | 49.06364 | 2.71140 | 4614 ft | 256 kts | 4° |
| 2026-05-08 09:10 | 49.08120 | 2.70726 | 5162 ft | 261 kts | 341° |
| 2026-05-08 09:11 | 49.09826 | 2.69698 | 5780 ft | 266 kts | 337° |
| 2026-05-08 09:11 | 49.11551 | 2.68598 | 6427 ft | 271 kts | 338° |
| 2026-05-08 09:11 | 49.13303 | 2.67543 | 7108 ft | 271 kts | 339° |
| 2026-05-08 09:11 | 49.15084 | 2.66539 | 7764 ft | 273 kts | 340° |
| 2026-05-08 09:12 | 49.16891 | 2.65577 | 8392 ft | 276 kts | 341° |
| 2026-05-08 09:12 | 49.18724 | 2.64645 | 9022 ft | 279 kts | 341° |
| 2026-05-08 09:12 | 49.20581 | 2.63730 | 9685 ft | 282 kts | 342° |
| 2026-05-08 09:12 | 49.22459 | 2.62828 | 10318 ft | 284 kts | 342° |
| 2026-05-08 09:13 | 49.24397 | 2.61915 | 10642 ft | 301 kts | 342° |
| 2026-05-08 09:13 | 49.26466 | 2.60948 | 10807 ft | 322 kts | 342° |
| 2026-05-08 09:13 | 49.28682 | 2.59919 | 10991 ft | 343 kts | 342° |
| 2026-05-08 09:13 | 49.31043 | 2.58828 | 11210 ft | 363 kts | 342° |
| 2026-05-08 09:14 | 49.33503 | 2.57699 | 11718 ft | 374 kts | 342° |
| 2026-05-08 09:14 | 49.36028 | 2.56541 | 12404 ft | 383 kts | 342° |
| 2026-05-08 09:14 | 49.38603 | 2.55358 | 13179 ft | 389 kts | 342° |
| 2026-05-08 09:14 | 49.41171 | 2.54180 | 13985 ft | 394 kts | 342° |
| 2026-05-08 09:15 | 49.43854 | 2.52949 | 14715 ft | 399 kts | 342° |
| 2026-05-08 09:15 | 49.46495 | 2.51733 | 15486 ft | 402 kts | 342° |
| 2026-05-08 09:15 | 49.49193 | 2.50490 | 16258 ft | 406 kts | 342° |
| 2026-05-08 09:15 | 49.51923 | 2.49232 | 16980 ft | 411 kts | 342° |
| 2026-05-08 09:16 | 49.54682 | 2.47959 | 17693 ft | 416 kts | 342° |
| 2026-05-08 09:16 | 49.57476 | 2.46669 | 18411 ft | 421 kts | 342° |
| 2026-05-08 09:16 | 49.60303 | 2.45361 | 19050 ft | 425 kts | 341° |
| 2026-05-08 09:16 | 49.63106 | 2.44060 | 19717 ft | 428 kts | 341° |
| 2026-05-08 09:17 | 49.65967 | 2.42733 | 20389 ft | 431 kts | 341° |
| 2026-05-08 09:17 | 49.68855 | 2.41391 | 21029 ft | 435 kts | 341° |
| 2026-05-08 09:17 | 49.71766 | 2.40038 | 21637 ft | 439 kts | 341° |
| 2026-05-08 09:17 | 49.74714 | 2.38666 | 22256 ft | 442 kts | 341° |
| 2026-05-08 09:18 | 49.77672 | 2.37287 | 22883 ft | 445 kts | 341° |
| 2026-05-08 09:18 | 49.80626 | 2.35761 | 23463 ft | 448 kts | 338° |
| 2026-05-08 09:18 | 49.83567 | 2.34086 | 23982 ft | 452 kts | 338° |
| 2026-05-08 09:18 | 49.86521 | 2.32352 | 24460 ft | 455 kts | 337° |
| 2026-05-08 09:19 | 49.89485 | 2.30602 | 24964 ft | 457 kts | 337° |
| 2026-05-08 09:19 | 49.92431 | 2.28866 | 25436 ft | 460 kts | 337° |
| 2026-05-08 09:19 | 49.95443 | 2.27099 | 25892 ft | 464 kts | 338° |
| 2026-05-08 09:19 | 49.98479 | 2.25325 | 26344 ft | 467 kts | 338° |
| 2026-05-08 09:20 | 50.01537 | 2.23542 | 26790 ft | 470 kts | 338° |
| 2026-05-08 09:20 | 50.04609 | 2.21752 | 27218 ft | 473 kts | 338° |
| 2026-05-08 09:20 | 50.07707 | 2.19945 | 27645 ft | 476 kts | 338° |
| 2026-05-08 09:20 | 50.10820 | 2.18127 | 28060 ft | 479 kts | 338° |
| 2026-05-08 09:21 | 50.13955 | 2.16292 | 28453 ft | 482 kts | 338° |
| 2026-05-08 09:21 | 50.17113 | 2.14441 | 28821 ft | 485 kts | 338° |
| 2026-05-08 09:22 | 50.35938 | 2.02847 | 31434 ft | 480 kts | 329° |
| 2026-05-08 09:23 | 50.38791 | 2.00116 | 31849 ft | 478 kts | 324° |
| 2026-05-08 09:23 | 50.41451 | 1.97009 | 32245 ft | 475 kts | 317° |
| 2026-05-08 09:23 | 50.43943 | 1.93615 | 32649 ft | 473 kts | 316° |
| 2026-05-08 09:23 | 50.46404 | 1.90196 | 33070 ft | 472 kts | 316° |
| 2026-05-08 09:24 | 50.48856 | 1.86783 | 33438 ft | 471 kts | 316° |
| 2026-05-08 09:24 | 50.51310 | 1.83387 | 33813 ft | 470 kts | 316° |
| 2026-05-08 09:24 | 50.53773 | 1.79996 | 34049 ft | 472 kts | 317° |
| 2026-05-08 09:25 | 50.58748 | 1.73170 | 34102 ft | 473 kts | 317° |
| 2026-05-08 09:25 | 50.63667 | 1.66409 | 34092 ft | 466 kts | 317° |
| 2026-05-08 09:26 | 50.68547 | 1.59672 | 34101 ft | 466 kts | 317° |
| 2026-05-08 09:26 | 50.73386 | 1.52971 | 34103 ft | 466 kts | 317° |